Monument Valley, UT (84536)

11:27 PM MDT on August 01, 2014 (GMT -0600)
Page Municipal (KPGA) Elev 4308 ft | 36.92 °N, 111.45 °W | Change Station

Current weather conditions updated 34 minutes ago

Clear
Clear
85 °F
Feels Like 85 °F
N
6
Wind Variable Wind from NW

Tomorrow is forecast to be Much Cooler than today. Slight chance of a thunderstorm tomorrow night.

Today
High -- | Low -- °F
--% Chance of Precip.
Yesterday
High -- | Low -- °F
Precip. -- in
6:27 AM 8:29 PM
Waxing Crescent, 32% visible
Pressure 29.87 in
Visibility 10.0 miles
Clouds Clear
Dew Point 46 °F
Humidity 26%
Rainfall 0.00 in
Snow Depth Not available.
UV 0 out of 12
Pollen 4.50 out of 12
Air Quality Not available.
Flu Activity Not available.
METAR KPGA 020453Z AUTO 31005KT 10SM CLR 29/08 A3008 RMK AO2 SLP113 T02940078

More Conditions Fewer Conditions

Pressure 29.87 in
Visibility 10.0 miles
Clouds Clear
Dew Point 46 °F
Humidity 26%
Rainfall 0.00 in
Snow Depth Not available.
UV 0 out of 12
Pollen 4.50 out of 12
Air Quality Not available.
Flu Activity Not available.
METAR KPGA 020453Z AUTO 31005KT 10SM CLR 29/08 A3008 RMK AO2 SLP113 T02940078

More Conditions Fewer Conditions

10-Day Weather Forecast

Almanac

Astronomy

Aug. 01, 2014 Rise Set
Actual Time 6:27 AM MDT 8:29 PM MDT
Civil Twilight 5:58 AM MDT 8:58 PM MDT
Nautical Twilight 5:23 AM MDT 9:33 PM MDT
Astronomical Twilight 4:45 AM MDT 10:10 PM MDT
Moon 11:45 AM MDT (8/1) 11:25 PM MDT (8/1)
Length of Visible Light 14h 59m
Length of Day
14h 02m
Tomorrow will be 1m 47s shorter.
Waxing Crescent, 32% of the Moon is Illuminated
Aug 2
Waxing Crescent
Aug 3
First Quarter
Aug 10
Full
Aug 17
Last Quarter
Aug 25
New

Yesterday's Extremes

State Highs State Lows

Community

WunderPhotos

Upload Photos

1,739,825 photos uploaded!

Nearby

Snow Depth

Station Depth Elevation
Clayton Springs 0 in 10000 ft
Agua Canyon 3 in 8900 ft
Long Valley Jct 0 in 7360 ft
Black Flat-U.M. Creek 0 in 9400 ft
Box Creek 0 in 9800 ft

Earthquake Activity

City Distance Mag. Time & Date
No recent earthquake activity has been reported nearby.
Minimum magnitude displayed is 2.5.

Coastal Water Temperatures

Place Temperature
No Stations Reporting

Nearby Weather Stations

There are no personal weather stations in this area.